Local Weather Dagens Jour: Gustav Peterson Saturday 8th of May
Flygplats METAR TAF
Airport METAR TAF
ESSL - Linköping082020Z AUTO 00000KT 9999 NCD 04/03 Q1012=NO VALID TAF PUBLISHED
ESCF - Malmen082020Z AUTO 17002KT 9999 NCD 05/01 Q1012=NO VALID TAF PUBLISHED
ESSP - Norrköping082020Z AUTO 23004KT 9999 NCD 05/00 Q1012=NO VALID TAF PUBLISHED
ESGJ - Jönköping082020Z AUTO 20004KT 9999 NCD 05/01 Q1012=NO VALID TAF PUBLISHED
ESKN - Skavsta082020Z 19006KT CAVOK 06/01 Q1012=081730Z 0818/0918 18008KT CAVOK PROB40 0818/0819 SHRA SCT060CB BECMG 0910/0912 RA TEMPO 0912/0916 4000 -RADZ BKN007 BECMG 0916/0917 NSW=
ESSV - Visby082020Z AUTO 17008KT 9999 NCD 04/02 Q1014=081430Z 0815/0817 22012KT CAVOK=
ESGG - Göteborg082020Z 15006KT CAVOK 06/02 Q1011=081730Z 0818/0918 20008KT CAVOK TEMPO 0902/0904 RA BECMG 0904/0906 RA OVC008 TEMPO 0906/0912 3000 -RA OVC004 BECMG 0912/0914 NSW SCT030=
FLEET STATUS
Flygplan Tid till service Tid till flygstopp Flygtid Landningar
Aircraft To service To stop Total time Landings
SE-IUD40.4 h50.4 h12 259.6 h25 038 st.
SE-KIT42.4 h52.4 h12 457.6 h24 454 st.
SE-KMH2.6 h7.6 h16 447.4 h61 361 st.
(1) Olja från broms under pedaler
SE-LRL9.4 h14.4 h1 190.6 h2 320 st.
SE-MEB10.0 h20.0 h1 690.0 h5 203 st.
(1) CDU 1 fan fail
(2) Högt fläktljud när G500 startar upp. Tappar ofta GPS låsning i sväng.
SE-MEKN/AN/A3 700.0 h3 580 st.
(1) Båda brytkopplingarna är trasiga, byt båda två då koplingarna ofta går isär.
(2) Glappkontakt radio och interkom vänster sida.
PPR
Ankomst Avgång Flygplan Namn Bränsle
Arrival Departure Aircraft Name Fuel
8/5 09:009/5 12:00SE-MEJErik HallInget
NOTAM
>>> ESSL/LINKOPING/SAAB <<<
+ WIP CENTRELINE RWY 29 150M EAST OF THR. FROM: 06 MAY 2021 05:15 TO: 06 AUG 2021 10:00 EST
+ AERODROME CONTROL TOWER (TWR) HOURS OF SERVICE ARE NOW MON-FRI 0515-1500, SAT-SUN CLSD FROM: 12 APR 2021 00:00 TO: 09 MAY 2021 23:59
+ INFORMATION REGARDING PPR HOSP AND SAR FLIGHTS OUTSIDE HR OF AD ADMINISTRATION CONTACT JRCC FROM: 06 APR 2021 06:34 TO: 31 MAY 2021 07:00 EST
+ OSTGOTA APPROACH CONTROL SERVICE (APP) HOURS OF SERVICE CHANGED TO MON-SUN 0430-2100. SERVICE PROVIDED ACCORDING TO ES AIP ENR 2.1 FROM: 28 MAR 2021 03:55 TO: 16 JUN 2021 21:50
+ AERODROME OPERATING MINIMA CHANGED TO RVR 750M RWY29 FROM: 17 MAR 2021 11:00 TO: 17 JUN 2021 11:00 EST
+ APCH LIGHTING SYSTEM RWY29 COMPLETELY WITHDRAWN REPLACED WITH SIMPLE APCH LIGHTING SYTEM 420M. FROM: 17 MAR 2021 11:00 TO: 17 JUN 2021 11:00 EST
+ IFR TRAINING AND SCHOOL FLIGHTS REQUIRE PPR FROM ATS FOR APCHS AND TGL. ATS TEL +46 (0)60646213 FROM: 26 FEB 2021 10:06 TO: 26 MAY 2021 11:00 EST
+ AERODROME CAUTION WORK IN PROGRESS S OF RWY 11/29 W OF TWY I AND N OF RWY11/29 E OF TWY L. TRAFFIC NOT AFFECTED. FROM: 26 FEB 2021 10:16 TO: 26 MAY 2021 11:00 EST
>>> ESSP/NORRKOPING/KUNGSANGEN <<<
+ RWY 11/29 CLSD EXCEPT FOR ACFT WITH SPECIAL PERMISSION. FROM: 06 MAY 2021 16:00 TO: 09 MAY 2021 06:00
+ RWY 09/27 CLSD DUE WIP. FROM: 06 MAY 2021 16:01 TO: 09 MAY 2021 06:00
+ AERODROME CONTROL TOWER (TWR) HOURS OF SERVICE ARE NOW MON-THU CLSD, FRI 0600-1230, SAT-SUN CLSD FROM: 03 MAY 2021 00:00 TO: 09 MAY 2021 23:59
+ FUEL AVAILABILITY HOURS OF SERVICE ARE NOW MON-THU CLSD, FRI 0600-1130, SAT-SUN CLSD FROM: 03 MAY 2021 00:00 TO: 09 MAY 2021 23:59
+ OSTGOTA APPROACH CONTROL SERVICE (APP) HOURS OF SERVICE CHANGED TO MON-SUN 0430-2100. SERVICE PROVIDED ACCORDING TO ES AIP ENR 2.1 FROM: 28 MAR 2021 03:55 TO: 16 JUN 2021 21:50
>>> ESCF/LINKOPING/MALMEN <<<
+ OSTGOTA APPROACH CONTROL SERVICE (APP) HOURS OF SERVICE CHANGED TO MON-SUN 0430-2100. SERVICE PROVIDED ACCORDING TO ES AIP ENR 2.1 FROM: 28 MAR 2021 03:55 TO: 16 JUN 2021 21:50